Time;durP1;ratioP1;P1;durP2;ratioP2;P2;SDS_P1;SDS_P2;PMS_P1;PMS_P2;Temp;Humidity;BMP_temperature;BMP_pressure;BME280_temperature;BME280_humidity;BME280_pressure;Samples;Min_cycle;Max_cycle;Signal;HPM_P1;HPM_P2
2022/10/08 00:00:08;;;;;;;12.40;3.20;;;13.30;99.90;;;;;;5022785;28;20061;-81
2022/10/08 00:02:34;;;;;;;11.77;3.00;;;13.30;99.90;;;;;;5022352;28;20034;-81
2022/10/08 00:05:00;;;;;;;11.32;3.03;;;13.30;99.90;;;;;;5026462;28;20494;-80
2022/10/08 00:07:25;;;;;;;14.43;3.60;;;13.40;99.90;;;;;;5008066;28;20103;-81
2022/10/08 00:09:51;;;;;;;11.63;3.60;;;13.40;99.90;;;;;;5021434;28;20046;-79
2022/10/08 00:12:17;;;;;;;10.60;3.30;;;13.40;99.90;;;;;;5008788;28;20049;-79
2022/10/08 00:14:43;;;;;;;12.80;3.67;;;13.40;99.90;;;;;;5027554;28;20574;-79
2022/10/08 00:17:08;;;;;;;14.45;3.80;;;13.40;99.90;;;;;;5024177;28;20030;-79
2022/10/08 00:19:34;;;;;;;15.60;3.63;;;13.40;99.90;;;;;;5028771;28;20056;-80
2022/10/08 00:22:00;;;;;;;11.68;3.80;;;13.40;99.90;;;;;;5026566;28;20045;-81
2022/10/08 00:24:26;;;;;;;14.57;3.35;;;13.40;99.90;;;;;;5020887;28;20041;-82
2022/10/08 00:26:52;;;;;;;13.25;3.67;;;13.30;99.90;;;;;;5009378;28;20095;-82
2022/10/08 00:29:21;;;;;;;10.70;3.63;;;13.40;99.90;;;;;;5004526;28;20100;-80
2022/10/08 00:31:48;;;;;;;11.45;4.07;;;13.40;99.90;;;;;;5026789;28;20049;-80
2022/10/08 00:34:18;;;;;;;12.88;3.60;;;13.30;99.90;;;;;;5022754;28;20045;-79
2022/10/08 00:36:46;;;;;;;13.77;3.83;;;13.30;99.90;;;;;;5026821;28;20128;-80
2022/10/08 00:39:13;;;;;;;;;;;13.30;99.90;;;;;;5021254;28;20372;-81
2022/10/08 00:41:39;;;;;;;12.45;3.85;;;13.30;99.90;;;;;;5023582;28;20391;-81
2022/10/08 00:44:43;;;;;;;16.85;3.80;;;13.20;99.90;;;;;;5022799;28;20478;-79
2022/10/08 00:47:40;;;;;;;14.50;4.78;;;13.20;99.90;;;;;;5023635;28;20178;-81
2022/10/08 00:50:12;;;;;;;15.68;4.30;;;13.20;99.90;;;;;;4991595;28;20042;-79
2022/10/08 00:52:44;;;;;;;14.50;4.43;;;13.10;99.90;;;;;;5003465;28;20075;-79
2022/10/08 00:55:12;;;;;;;11.27;3.63;;;13.00;99.90;;;;;;5007914;28;20042;-79
2022/10/08 00:57:38;;;;;;;11.80;3.92;;;13.00;99.90;;;;;;5024004;28;20037;-80
2022/10/08 01:00:12;;;;;;;12.75;4.00;;;13.00;99.90;;;;;;5011274;28;20052;-79
2022/10/08 01:02:38;;;;;;;14.93;4.35;;;13.00;99.90;;;;;;5013234;28;20042;-79
2022/10/08 01:05:05;;;;;;;13.48;4.25;;;13.00;99.90;;;;;;5006022;28;20040;-81
2022/10/08 01:08:12;;;;;;;14.45;4.78;;;13.00;99.90;;;;;;5027636;28;20467;-82
2022/10/08 01:11:01;;;;;;;14.07;4.32;;;13.00;99.90;;;;;;5005692;28;20509;-80
2022/10/08 01:13:52;;;;;;;12.90;4.07;;;12.90;99.90;;;;;;5017850;28;20100;-80
2022/10/08 01:16:36;;;;;;;18.05;4.03;;;12.90;99.90;;;;;;5016470;28;20573;-81
2022/10/08 01:19:26;;;;;;;15.80;4.55;;;12.90;99.90;;;;;;5019753;28;20069;-79
2022/10/08 01:22:10;;;;;;;15.77;5.15;;;12.90;99.90;;;;;;5015943;28;20128;-80
2022/10/08 01:27:51;;;;;;;15.77;4.65;;;12.80;99.90;;;;;;5003180;28;20511;-79
2022/10/08 01:30:19;;;;;;;14.02;4.78;;;12.80;99.90;;;;;;4989286;28;20440;-77
2022/10/08 01:33:11;;;;;;;11.73;4.35;;;12.80;99.90;;;;;;5010565;28;20077;-77
2022/10/08 01:35:43;;;;;;;15.70;4.75;;;12.90;99.90;;;;;;4976812;28;20069;-78
2022/10/08 01:38:15;;;;;;;14.70;4.05;;;12.90;99.90;;;;;;5002974;28;20113;-77
2022/10/08 01:40:57;;;;;;;11.30;3.97;;;12.90;99.90;;;;;;5007985;28;20038;-76
2022/10/08 01:43:30;;;;;;;8.90;3.78;;;12.90;99.90;;;;;;4996623;28;20065;-77
2022/10/08 01:46:01;;;;;;;10.20;3.80;;;12.90;99.90;;;;;;4992291;28;20136;-78
2022/10/08 01:48:32;;;;;;;12.73;3.90;;;12.90;99.90;;;;;;4988853;28;20134;-80
2022/10/08 01:51:19;;;;;;;10.90;4.18;;;12.90;99.90;;;;;;5004204;28;20057;-76
2022/10/08 01:53:50;;;;;;;13.30;3.58;;;12.90;99.90;;;;;;5000099;28;20049;-76
2022/10/08 01:56:21;;;;;;;12.68;4.45;;;12.90;99.90;;;;;;4972236;28;20045;-76
2022/10/08 01:59:00;;;;;;;10.68;3.85;;;12.90;99.90;;;;;;5003022;28;20057;-76
2022/10/08 02:01:57;;;;;;;10.93;4.30;;;12.90;99.90;;;;;;5001841;28;20042;-76
2022/10/08 02:04:32;;;;;;;13.57;4.85;;;12.90;99.90;;;;;;4980643;28;20057;-79
2022/10/08 02:07:04;;;;;;;12.25;5.15;;;12.80;99.90;;;;;;5003879;28;20053;-78
2022/10/08 02:09:34;;;;;;;11.68;5.10;;;12.90;99.90;;;;;;5000686;28;20125;-78
2022/10/08 02:12:03;;;;;;;13.50;5.30;;;12.90;99.90;;;;;;4988049;28;20042;-78
2022/10/08 02:14:30;;;;;;;14.15;4.72;;;12.80;99.90;;;;;;5008261;28;20120;-78
2022/10/08 02:17:15;;;;;;;11.48;4.50;;;12.80;99.90;;;;;;5004828;28;20065;-78
2022/10/08 02:19:51;;;;;;;14.52;5.13;;;12.80;99.90;;;;;;5001851;28;20053;-77
2022/10/08 02:22:20;;;;;;;12.25;5.10;;;12.80;99.90;;;;;;4999559;28;20053;-76
2022/10/08 02:25:04;;;;;;;15.02;5.15;;;12.80;99.90;;;;;;5006993;28;20053;-76
2022/10/08 02:27:42;;;;;;;12.02;4.55;;;12.80;99.90;;;;;;5007867;28;20053;-77
2022/10/08 02:30:11;;;;;;;13.25;5.15;;;12.80;99.90;;;;;;5004919;28;20121;-77
2022/10/08 02:33:03;;;;;;;9.93;4.38;;;12.70;99.90;;;;;;5007847;28;20045;-77
2022/10/08 02:35:41;;;;;;;13.43;4.80;;;12.70;99.90;;;;;;4986073;28;20073;-77
2022/10/08 02:38:12;;;;;;;13.40;5.10;;;12.70;99.90;;;;;;5007049;28;20097;-76
2022/10/08 02:40:42;;;;;;;9.85;4.43;;;12.70;99.90;;;;;;5007059;28;20053;-75
2022/10/08 02:43:15;;;;;;;12.70;4.72;;;12.70;99.90;;;;;;5007463;28;20915;-77
2022/10/08 02:45:46;;;;;;;12.25;4.50;;;12.70;99.90;;;;;;4998937;28;20497;-78
2022/10/08 02:48:26;;;;;;;14.68;4.80;;;12.80;99.90;;;;;;4990121;28;20111;-80
2022/10/08 02:50:53;;;;;;;10.50;4.35;;;12.80;99.90;;;;;;5027587;28;20053;-78
2022/10/08 02:53:22;;;;;;;10.93;4.80;;;12.70;99.90;;;;;;5026655;28;20049;-80
2022/10/08 02:55:59;;;;;;;15.00;4.65;;;12.70;99.90;;;;;;5023913;28;20073;-80
2022/10/08 02:58:25;;;;;;;;;;;12.70;99.90;;;;;;5015472;28;20041;-79
2022/10/08 03:00:58;;;;;;;10.85;4.15;;;12.70;99.90;;;;;;5026919;28;19928;-80
2022/10/08 03:03:50;;;;;;;14.40;4.43;;;12.70;99.90;;;;;;5028454;28;20106;-79
2022/10/08 03:06:17;;;;;;;12.55;4.30;;;12.70;99.90;;;;;;5016565;28;20061;-80
2022/10/08 03:08:48;;;;;;;14.30;4.83;;;12.70;99.90;;;;;;5026177;28;20033;-81
2022/10/08 03:11:14;;;;;;;11.60;4.13;;;12.70;99.90;;;;;;5026609;28;20483;-79
2022/10/08 03:13:43;;;;;;;10.18;3.95;;;12.70;99.90;;;;;;5008245;28;20096;-81
2022/10/08 03:16:13;;;;;;;13.52;4.05;;;12.70;99.90;;;;;;5009229;28;20041;-79
2022/10/08 03:18:40;;;;;;;11.52;4.10;;;12.70;99.90;;;;;;5025545;28;20052;-80
2022/10/08 03:21:11;;;;;;;10.30;4.20;;;12.70;99.90;;;;;;5026345;28;20117;-80
2022/10/08 03:23:37;;;;;;;13.73;4.13;;;12.70;99.90;;;;;;5007260;28;20109;-79
2022/10/08 03:26:03;;;;;;;12.48;4.53;;;12.70;99.90;;;;;;5027811;28;20072;-82
2022/10/08 03:28:29;;;;;;;11.85;4.20;;;12.70;99.90;;;;;;5025374;28;20089;-80
2022/10/08 03:30:55;;;;;;;10.05;3.88;;;12.70;99.90;;;;;;5021133;28;20470;-79
2022/10/08 03:33:21;;;;;;;10.57;3.88;;;12.60;99.90;;;;;;5027554;28;20049;-80
2022/10/08 03:35:47;;;;;;;11.10;3.90;;;12.70;99.90;;;;;;5023855;28;20045;-81
2022/10/08 03:38:16;;;;;;;9.68;4.22;;;12.60;99.90;;;;;;5024732;28;20042;-82
2022/10/08 03:40:51;;;;;;;7.90;3.42;;;12.60;99.90;;;;;;5024242;28;20037;-80
2022/10/08 03:43:17;;;;;;;10.38;3.65;;;12.60;99.90;;;;;;4995547;28;20057;-79
2022/10/08 03:45:52;;;;;;;9.85;3.17;;;12.60;99.90;;;;;;5025544;28;20157;-82
2022/10/08 03:48:20;;;;;;;14.25;4.30;;;12.60;99.90;;;;;;5023079;28;20139;-79
2022/10/08 03:50:56;;;;;;;8.77;3.55;;;12.50;99.90;;;;;;5023722;28;20660;-79
2022/10/08 03:53:22;;;;;;;9.02;3.80;;;12.50;99.90;;;;;;5023022;28;20045;-80
2022/10/08 03:55:48;;;;;;;8.75;3.58;;;12.40;99.90;;;;;;5027142;28;20196;-78
2022/10/08 03:58:14;;;;;;;9.68;3.95;;;12.40;99.90;;;;;;5025738;28;20670;-80
2022/10/08 04:00:40;;;;;;;8.27;3.70;;;12.40;99.90;;;;;;5024571;28;20715;-80
2022/10/08 04:03:06;;;;;;;8.73;3.85;;;12.40;99.90;;;;;;5024221;28;20459;-82
2022/10/08 04:05:32;;;;;;;7.97;3.75;;;12.40;99.90;;;;;;5025795;28;20033;-80
2022/10/08 04:07:58;;;;;;;7.80;3.90;;;12.40;99.90;;;;;;5019944;28;20042;-80
2022/10/08 04:10:23;;;;;;;10.93;4.60;;;12.40;99.90;;;;;;5029024;28;20093;-77
2022/10/08 04:12:49;;;;;;;12.13;4.50;;;12.40;99.90;;;;;;5028381;28;20050;-84
2022/10/08 04:15:15;;;;;;;9.73;4.57;;;12.40;99.90;;;;;;5000472;28;20156;-79
2022/10/08 04:17:41;;;;;;;8.98;4.65;;;12.40;99.90;;;;;;5022663;28;20037;-81
2022/10/08 04:20:07;;;;;;;8.93;4.88;;;12.40;99.90;;;;;;5027290;28;20117;-80
2022/10/08 04:22:32;;;;;;;11.43;6.40;;;12.40;99.90;;;;;;5024237;28;20196;-81
2022/10/08 04:24:58;;;;;;;12.25;6.05;;;12.50;99.90;;;;;;5022803;28;20041;-80
2022/10/08 04:27:24;;;;;;;10.32;6.28;;;12.50;99.90;;;;;;5027342;28;20080;-80
2022/10/08 04:29:50;;;;;;;11.77;6.57;;;12.40;99.90;;;;;;5026242;28;20033;-79
2022/10/08 04:32:15;;;;;;;11.57;6.38;;;12.50;99.90;;;;;;5004058;28;20052;-81
2022/10/08 04:34:41;;;;;;;9.85;6.20;;;12.40;99.90;;;;;;5026201;28;20049;-81
2022/10/08 04:37:07;;;;;;;13.88;6.80;;;12.50;99.90;;;;;;5023221;28;20048;-80
2022/10/08 04:39:32;;;;;;;11.20;6.50;;;12.50;99.90;;;;;;5023989;28;20471;-79
2022/10/08 04:41:58;;;;;;;15.82;6.95;;;12.50;99.90;;;;;;5024469;28;20076;-79
2022/10/08 04:44:24;;;;;;;13.63;6.85;;;12.40;99.90;;;;;;5026075;28;20041;-80
2022/10/08 04:46:49;;;;;;;13.50;6.72;;;12.50;99.90;;;;;;5026276;28;20048;-80
2022/10/08 04:49:15;;;;;;;14.23;6.90;;;12.50;99.90;;;;;;5025132;28;20049;-79
2022/10/08 04:51:41;;;;;;;11.07;6.68;;;12.50;99.90;;;;;;5022310;28;20496;-80
2022/10/08 04:54:07;;;;;;;13.30;7.95;;;12.40;99.90;;;;;;5024391;28;20123;-79
2022/10/08 04:56:35;;;;;;;9.93;6.80;;;12.40;99.90;;;;;;5023633;28;20049;-80
2022/10/08 04:59:02;;;;;;;16.95;7.30;;;12.40;99.90;;;;;;5008841;28;20509;-80
2022/10/08 05:01:29;;;;;;;11.55;6.65;;;12.30;99.90;;;;;;5021628;28;20060;-79
2022/10/08 05:03:56;;;;;;;14.60;7.53;;;12.40;99.90;;;;;;5004479;28;20049;-80
2022/10/08 05:06:25;;;;;;;14.00;7.22;;;12.40;99.90;;;;;;5024950;28;20048;-80
2022/10/08 05:08:52;;;;;;;13.13;6.85;;;12.30;99.90;;;;;;5016035;28;20041;-80
2022/10/08 05:11:21;;;;;;;12.13;6.80;;;12.40;99.90;;;;;;5024809;28;20503;-80
2022/10/08 05:13:52;;;;;;;11.90;6.97;;;12.20;99.90;;;;;;5007148;28;20076;-79
2022/10/08 05:16:18;;;;;;;13.13;7.00;;;12.30;99.90;;;;;;5011392;28;20053;-83
2022/10/08 05:18:46;;;;;;;12.90;6.50;;;12.30;99.90;;;;;;5022566;28;20037;-81
2022/10/08 05:21:14;;;;;;;13.60;6.85;;;12.30;99.90;;;;;;5025664;28;20038;-80
2022/10/08 05:23:43;;;;;;;12.10;6.60;;;12.30;99.90;;;;;;5002676;28;20048;-79
2022/10/08 05:26:20;;;;;;;10.48;5.70;;;12.30;99.90;;;;;;5022435;28;20056;-80
2022/10/08 05:28:47;;;;;;;14.65;6.43;;;12.20;99.90;;;;;;5024004;28;20130;-79
2022/10/08 05:31:14;;;;;;;12.52;6.22;;;12.20;99.90;;;;;;5006796;28;20049;-79
2022/10/08 05:33:40;;;;;;;12.52;5.40;;;12.20;99.90;;;;;;5020363;28;20046;-82
2022/10/08 05:36:07;;;;;;;13.52;5.50;;;12.20;99.90;;;;;;5004796;28;20053;-79
2022/10/08 05:38:34;;;;;;;;;;;12.20;99.90;;;;;;5020357;28;20046;-81
2022/10/08 05:41:20;;;;;;;11.67;4.63;;;12.20;99.90;;;;;;5023175;28;19964;-78
2022/10/08 05:43:47;;;;;;;12.90;5.13;;;12.10;99.90;;;;;;5017112;28;20045;-79
2022/10/08 05:46:14;;;;;;;11.77;4.43;;;12.10;99.90;;;;;;5016849;28;20295;-78
2022/10/08 05:48:41;;;;;;;9.80;4.07;;;12.10;99.90;;;;;;5025199;28;20566;-79
2022/10/08 05:51:15;;;;;;;10.68;5.00;;;12.10;99.90;;;;;;5028404;28;20129;-80
2022/10/08 05:53:46;;;;;;;14.13;5.22;;;12.10;99.90;;;;;;5020978;28;20515;-78
2022/10/08 05:56:14;;;;;;;10.85;5.00;;;12.10;99.90;;;;;;5013326;28;20048;-78
2022/10/08 05:58:41;;;;;;;12.32;5.47;;;12.10;99.90;;;;;;5023726;28;20189;-77
2022/10/08 06:01:20;;;;;;;12.17;5.10;;;12.10;99.90;;;;;;5020841;28;20074;-80
2022/10/08 06:03:52;;;;;;;10.52;4.80;;;12.10;99.90;;;;;;5024390;28;20450;-79
2022/10/08 06:06:19;;;;;;;12.00;5.53;;;12.10;99.90;;;;;;5007374;28;20057;-79
2022/10/08 06:08:45;;;;;;;9.43;5.00;;;12.10;99.90;;;;;;5026911;28;20665;-80
2022/10/08 06:11:17;;;;;;;11.40;5.75;;;12.10;99.90;;;;;;5025819;28;20046;-79
2022/10/08 06:13:43;;;;;;;14.93;5.82;;;12.10;99.90;;;;;;5026921;28;20057;-81
2022/10/08 06:16:13;;;;;;;14.43;6.20;;;12.10;99.90;;;;;;5005409;28;20045;-80
2022/10/08 06:18:40;;;;;;;14.38;6.35;;;12.00;99.90;;;;;;5020911;28;20515;-79
2022/10/08 06:21:15;;;;;;;14.30;6.78;;;12.00;99.90;;;;;;5018414;28;20041;-79
2022/10/08 06:23:48;;;;;;;14.20;5.85;;;12.00;99.90;;;;;;5021004;28;20053;-79
2022/10/08 06:26:16;;;;;;;14.07;5.95;;;12.00;99.90;;;;;;5003840;28;20151;-80
2022/10/08 06:28:46;;;;;;;11.02;5.97;;;11.90;99.90;;;;;;5018719;28;20037;-80
2022/10/08 06:31:29;;;;;;;11.43;5.50;;;11.90;99.90;;;;;;5024725;28;20037;-79
2022/10/08 06:33:59;;;;;;;11.13;6.25;;;11.90;99.90;;;;;;4995451;28;20049;-81
2022/10/08 06:36:26;;;;;;;14.38;6.15;;;11.90;99.90;;;;;;5012582;28;20396;-82
2022/10/08 06:39:04;;;;;;;13.52;5.88;;;11.90;99.90;;;;;;4992233;28;20079;-80
2022/10/08 06:41:33;;;;;;;10.90;5.80;;;11.90;99.90;;;;;;5025978;28;20058;-81
2022/10/08 06:44:00;;;;;;;17.10;6.03;;;11.90;99.90;;;;;;5022467;28;20443;-82
2022/10/08 06:46:26;;;;;;;11.45;6.28;;;12.00;99.90;;;;;;5001580;28;20127;-78
2022/10/08 06:48:52;;;;;;;12.82;5.80;;;12.00;99.90;;;;;;5021143;28;20123;-83
2022/10/08 06:51:18;;;;;;;12.43;5.75;;;12.00;99.90;;;;;;5025442;28;20623;-83
2022/10/08 06:53:50;;;;;;;13.93;6.05;;;12.10;99.90;;;;;;5023307;28;20049;-78
2022/10/08 06:56:19;;;;;;;11.88;6.20;;;12.20;99.90;;;;;;5024705;28;20404;-80
2022/10/08 06:58:46;;;;;;;13.85;5.90;;;12.20;99.90;;;;;;5024246;28;20120;-78
2022/10/08 07:01:23;;;;;;;13.65;6.75;;;12.20;99.90;;;;;;5006233;28;20050;-76
2022/10/08 07:03:54;;;;;;;12.02;6.70;;;12.30;99.90;;;;;;5021958;28;20034;-78
2022/10/08 07:06:20;;;;;;;11.30;6.93;;;12.30;99.90;;;;;;5020876;28;20056;-80
2022/10/08 07:08:46;;;;;;;13.15;6.82;;;12.30;99.90;;;;;;5023403;28;20476;-80
2022/10/08 07:11:16;;;;;;;17.70;7.28;;;12.40;99.90;;;;;;5025023;28;20396;-80
2022/10/08 07:13:43;;;;;;;11.65;6.95;;;12.40;99.90;;;;;;5023883;28;20033;-80
2022/10/08 07:16:15;;;;;;;13.55;6.95;;;12.40;99.90;;;;;;5004136;28;20037;-79
2022/10/08 07:18:41;;;;;;;17.23;7.30;;;12.40;99.90;;;;;;5023298;28;20516;-78
2022/10/08 07:21:11;;;;;;;15.60;7.18;;;12.40;99.90;;;;;;5027941;28;20042;-82
2022/10/08 07:23:36;;;;;;;12.15;6.95;;;12.40;99.90;;;;;;5028334;28;20042;-85
2022/10/08 07:26:14;;;;;;;11.80;6.50;;;12.40;99.90;;;;;;5026562;28;20045;-84
2022/10/08 07:28:50;;;;;;;13.52;7.22;;;12.50;99.90;;;;;;5028451;28;20503;-85
2022/10/08 07:31:19;;;;;;;14.13;6.97;;;12.60;99.90;;;;;;5027397;28;20152;-84
2022/10/08 07:33:44;;;;;;;13.82;6.28;;;12.60;99.90;;;;;;5027475;28;20073;-85
2022/10/08 07:36:13;;;;;;;14.80;7.05;;;12.60;99.90;;;;;;5024655;28;20073;-81
2022/10/08 07:38:39;;;;;;;14.82;6.68;;;12.50;99.90;;;;;;5007710;28;20084;-82
2022/10/08 07:41:07;;;;;;;15.13;6.97;;;12.60;99.90;;;;;;5027225;28;20494;-79
2022/10/08 07:43:33;;;;;;;;;;;12.60;99.90;;;;;;5029339;28;20057;-78
2022/10/08 07:45:59;;;;;;;14.00;6.30;;;12.60;99.90;;;;;;5008784;28;20316;-76
2022/10/08 07:48:26;;;;;;;16.45;6.07;;;12.60;99.90;;;;;;5032371;28;20045;-79
2022/10/08 07:50:52;;;;;;;13.43;5.78;;;12.60;99.90;;;;;;5005574;28;20056;-79
2022/10/08 07:53:17;;;;;;;12.43;5.43;;;12.60;99.90;;;;;;5025504;28;20411;-81
2022/10/08 07:55:43;;;;;;;12.75;5.35;;;12.60;99.90;;;;;;5027147;28;20132;-83
2022/10/08 07:58:09;;;;;;;13.68;5.45;;;12.70;99.90;;;;;;5029698;28;20116;-80
2022/10/08 08:00:40;;;;;;;15.30;6.55;;;12.70;99.90;;;;;;5026137;28;20034;-81
2022/10/08 08:03:12;;;;;;;13.43;5.95;;;12.80;99.90;;;;;;5019319;28;20049;-82
2022/10/08 08:05:37;;;;;;;12.38;5.70;;;12.80;99.90;;;;;;5031123;28;20041;-81
2022/10/08 08:08:03;;;;;;;12.85;5.43;;;12.90;99.90;;;;;;5022483;28;20173;-79
2022/10/08 08:10:29;;;;;;;15.88;5.30;;;13.00;99.90;;;;;;5026036;28;20099;-82
2022/10/08 08:12:55;;;;;;;16.40;5.13;;;13.00;99.90;;;;;;5023994;28;20076;-83
2022/10/08 08:15:20;;;;;;;11.73;5.60;;;13.00;99.90;;;;;;5024443;28;20052;-79
2022/10/08 08:17:46;;;;;;;14.48;4.95;;;13.00;99.90;;;;;;5027571;28;20053;-79
2022/10/08 08:20:12;;;;;;;13.85;5.70;;;13.00;99.90;;;;;;5025940;28;20088;-83
2022/10/08 08:22:37;;;;;;;13.82;4.63;;;13.00;99.90;;;;;;5022391;28;20056;-76
2022/10/08 08:25:03;;;;;;;12.10;4.20;;;13.00;99.90;;;;;;4998302;28;20144;-75
2022/10/08 08:27:30;;;;;;;11.60;4.30;;;13.10;99.90;;;;;;5014211;28;20132;-75
2022/10/08 08:29:59;;;;;;;12.05;4.40;;;13.10;99.90;;;;;;5015149;28;20057;-75
2022/10/08 08:32:25;;;;;;;13.02;3.60;;;13.20;99.90;;;;;;5013009;28;20037;-73
2022/10/08 08:34:52;;;;;;;10.10;3.38;;;13.20;99.90;;;;;;4997109;28;20057;-82
2022/10/08 08:37:18;;;;;;;15.63;3.58;;;13.30;99.90;;;;;;5017292;28;20556;-81
2022/10/08 08:39:44;;;;;;;13.20;3.80;;;13.30;99.90;;;;;;5020279;28;20049;-80
2022/10/08 08:42:19;;;;;;;13.60;3.53;;;13.40;99.90;;;;;;5023552;28;20049;-79
2022/10/08 08:44:59;;;;;;;11.15;3.33;;;13.40;99.90;;;;;;5025436;28;20038;-80
2022/10/08 08:47:31;;;;;;;14.20;3.22;;;13.50;99.90;;;;;;5019903;28;20400;-81
2022/10/08 08:50:18;;;;;;;10.98;2.63;;;13.50;99.90;;;;;;5024720;28;20065;-79
2022/10/08 08:52:44;;;;;;;9.65;2.00;;;13.60;99.90;;;;;;5026456;28;20049;-80
2022/10/08 08:55:41;;;;;;;8.25;2.28;;;13.60;99.90;;;;;;5018834;28;20041;-78
2022/10/08 08:58:25;;;;;;;14.93;2.33;;;13.70;99.90;;;;;;5003279;28;20404;-79
2022/10/08 09:00:56;;;;;;;10.10;2.10;;;13.70;99.90;;;;;;5021580;28;20662;-82
2022/10/08 09:03:33;;;;;;;10.82;1.90;;;13.80;99.90;;;;;;5025808;28;20488;-79
2022/10/08 09:06:04;;;;;;;11.15;2.28;;;13.90;99.90;;;;;;5025758;28;20095;-80
2022/10/08 09:08:38;;;;;;;11.32;2.58;;;14.00;99.90;;;;;;5018327;28;20041;-78
2022/10/08 09:11:04;;;;;;;8.75;1.92;;;14.10;99.90;;;;;;5020816;28;20095;-81
2022/10/08 09:13:39;;;;;;;7.85;1.73;;;14.10;99.90;;;;;;5026816;28;20503;-79
2022/10/08 09:16:05;;;;;;;9.98;2.30;;;14.20;99.90;;;;;;5022379;28;20060;-80
2022/10/08 09:18:31;;;;;;;9.88;1.95;;;14.20;99.90;;;;;;5010744;28;20077;-79
2022/10/08 09:20:57;;;;;;;8.43;2.03;;;14.20;99.90;;;;;;4996298;28;20092;-80
2022/10/08 09:23:25;;;;;;;13.15;2.40;;;14.20;99.90;;;;;;5016434;28;20136;-78
2022/10/08 09:26:21;;;;;;;12.05;2.05;;;14.30;99.90;;;;;;5014702;28;20042;-81
2022/10/08 09:28:53;;;;;;;10.45;1.73;;;14.20;99.90;;;;;;4997452;28;20066;-83
2022/10/08 09:31:42;;;;;;;9.27;2.40;;;14.30;99.90;;;;;;5021738;28;20045;-81
2022/10/08 09:34:17;;;;;;;10.50;1.83;;;14.30;99.90;;;;;;5017651;28;20464;-83
2022/10/08 09:36:52;;;;;;;11.77;1.83;;;14.30;99.90;;;;;;5025615;28;20064;-81
2022/10/08 09:39:26;;;;;;;7.00;1.52;;;14.40;99.90;;;;;;5025038;28;20046;-80
2022/10/08 09:42:07;;;;;;;9.45;1.50;;;14.60;99.90;;;;;;5024081;28;20047;-80
2022/10/08 09:44:46;;;;;;;9.90;1.60;;;14.70;99.90;;;;;;5028266;28;20548;-80
2022/10/08 09:47:14;;;;;;;8.40;1.67;;;14.70;99.90;;;;;;5024363;28;20496;-81
2022/10/08 09:49:41;;;;;;;9.73;1.67;;;14.90;99.90;;;;;;5005865;28;20146;-79
2022/10/08 09:52:18;;;;;;;6.30;1.40;;;15.10;99.90;;;;;;5019336;28;20041;-76
2022/10/08 09:55:09;;;;;;;6.82;1.45;;;15.20;99.90;;;;;;5022436;28;20107;-78
2022/10/08 09:57:47;;;;;;;9.63;1.75;;;15.20;99.90;;;;;;5001562;28;20060;-76
2022/10/08 10:00:30;;;;;;;9.23;1.58;;;15.20;99.90;;;;;;5022288;28;20041;-75
2022/10/08 10:02:58;;;;;;;9.30;1.58;;;15.20;99.90;;;;;;5030298;28;20093;-77
2022/10/08 10:05:27;;;;;;;6.88;1.63;;;15.20;99.90;;;;;;5025876;28;20128;-81
2022/10/08 10:07:53;;;;;;;6.68;1.33;;;15.10;99.90;;;;;;5001304;28;20048;-78
2022/10/08 10:10:39;;;;;;;8.52;1.45;;;15.00;99.90;;;;;;5026430;28;20041;-77
2022/10/08 10:13:22;;;;;;;8.30;1.30;;;14.80;99.90;;;;;;5018834;28;20056;-78
2022/10/08 10:15:52;;;;;;;7.35;1.20;;;14.80;99.90;;;;;;5026714;28;20052;-82
2022/10/08 10:18:21;;;;;;;7.40;1.83;;;14.70;99.90;;;;;;5025777;28;20069;-82
2022/10/08 10:20:58;;;;;;;7.20;1.30;;;14.70;99.90;;;;;;5026761;28;20072;-80
2022/10/08 10:23:31;;;;;;;7.85;1.38;;;14.70;99.90;;;;;;5024335;28;20042;-80
2022/10/08 10:26:02;;;;;;;5.72;1.23;;;14.70;99.90;;;;;;5016360;28;20084;-79
2022/10/08 10:28:41;;;;;;;5.28;1.30;;;14.80;99.90;;;;;;5019112;28;20033;-80
2022/10/08 10:31:12;;;;;;;6.45;1.50;;;14.90;99.90;;;;;;5008193;28;20137;-81
2022/10/08 10:33:50;;;;;;;7.28;1.52;;;15.00;99.90;;;;;;5008139;28;20049;-78
2022/10/08 10:36:17;;;;;;;8.80;1.52;;;15.20;99.90;;;;;;5016994;28;20431;-84
2022/10/08 10:38:54;;;;;;;6.80;1.40;;;15.30;99.90;;;;;;5017744;28;20045;-77
2022/10/08 10:41:42;;;;;;;9.75;1.83;;;15.30;99.90;;;;;;5025303;28;20065;-77
2022/10/08 10:44:13;;;;;;;2.75;1.10;;;15.30;99.90;;;;;;5024943;28;20116;-76
2022/10/08 10:46:51;;;;;;;5.05;0.93;;;15.10;99.90;;;;;;5029657;28;20053;-77
2022/10/08 10:49:22;;;;;;;3.80;0.82;;;14.70;99.90;;;;;;5012329;28;20053;-76
2022/10/08 10:52:02;;;;;;;5.25;1.35;;;14.30;99.90;;;;;;5030889;28;20047;-76
2022/10/08 10:55:07;;;;;;;6.95;1.10;;;14.00;99.90;;;;;;5031220;28;20049;-77
2022/10/08 10:57:59;;;;;;;6.10;1.02;;;13.80;99.90;;;;;;5006363;28;20542;-77
2022/10/08 11:00:40;;;;;;;7.30;1.17;;;13.60;99.90;;;;;;5020459;28;20132;-77
2022/10/08 11:03:13;;;;;;;6.38;1.48;;;13.50;99.90;;;;;;5008625;28;20072;-76
2022/10/08 11:05:42;;;;;;;6.97;2.05;;;13.50;99.90;;;;;;5030168;28;20056;-77
2022/10/08 11:08:24;;;;;;;6.50;1.92;;;13.70;99.90;;;;;;5030362;28;20567;-76
2022/10/08 11:10:59;;;;;;;6.63;1.35;;;13.80;99.90;;;;;;5029207;28;20381;-76
2022/10/08 11:13:51;;;;;;;5.05;1.30;;;14.00;99.90;;;;;;5027993;28;20049;-76
2022/10/08 11:16:38;;;;;;;6.68;1.40;;;14.00;99.90;;;;;;5029141;28;20160;-76
2022/10/08 11:19:06;;;;;;;;;;;14.00;99.90;;;;;;5028742;28;20132;-76
2022/10/08 11:21:44;;;;;;;6.75;1.40;;;13.90;99.90;;;;;;5013488;28;19927;-76
2022/10/08 11:24:15;;;;;;;6.13;1.27;;;13.80;99.90;;;;;;5029943;28;20730;-77
2022/10/08 11:26:53;;;;;;;7.60;1.80;;;13.80;99.90;;;;;;5029653;28;20057;-77
2022/10/08 11:29:39;;;;;;;6.35;1.65;;;13.90;99.90;;;;;;5009846;28;20042;-77
2022/10/08 11:32:13;;;;;;;5.78;1.30;;;14.00;99.90;;;;;;5029745;28;20132;-77
2022/10/08 11:34:53;;;;;;;5.68;1.30;;;14.10;99.90;;;;;;5010269;28;20221;-77
2022/10/08 11:37:30;;;;;;;8.50;1.52;;;14.20;99.90;;;;;;5029809;28;20080;-77
2022/10/08 11:40:18;;;;;;;6.00;1.33;;;14.30;99.90;;;;;;5012624;28;20488;-77
2022/10/08 11:42:53;;;;;;;10.65;1.70;;;14.40;99.90;;;;;;5028436;28;20134;-77
2022/10/08 11:45:21;;;;;;;6.88;1.35;;;14.50;99.90;;;;;;5011140;28;20057;-77
2022/10/08 11:47:49;;;;;;;10.25;1.48;;;14.60;99.90;;;;;;5009967;28;20045;-77
2022/10/08 11:50:34;;;;;;;12.82;1.75;;;14.70;99.90;;;;;;5030706;28;20053;-77
2022/10/08 11:53:17;;;;;;;7.93;1.55;;;14.80;99.90;;;;;;5027642;28;20543;-77
2022/10/08 11:55:51;;;;;;;9.45;1.63;;;14.90;99.90;;;;;;4994822;28;20529;-77
2022/10/08 11:58:29;;;;;;;11.60;1.80;;;15.00;99.90;;;;;;5013858;28;20164;-77
2022/10/08 12:01:06;;;;;;;10.93;1.83;;;15.10;99.90;;;;;;5030221;28;20046;-76
2022/10/08 12:03:33;;;;;;;;;;;15.20;99.90;;;;;;5006292;28;20663;-74
2022/10/08 12:06:12;;;;;;;9.63;1.50;;;15.20;99.90;;;;;;5010710;28;20023;-75
2022/10/08 12:08:55;;;;;;;9.15;1.60;;;15.20;99.90;;;;;;5027361;28;20038;-75
2022/10/08 12:11:38;;;;;;;9.13;1.55;;;15.40;99.90;;;;;;5027666;28;20443;-76
2022/10/08 12:14:13;;;;;;;10.20;1.63;;;15.50;99.90;;;;;;5028924;28;20045;-75
2022/10/08 12:16:48;;;;;;;9.90;1.50;;;15.60;99.90;;;;;;5009285;28;20049;-77
2022/10/08 12:19:34;;;;;;;7.93;1.30;;;15.70;99.90;;;;;;5026027;28;20045;-76
2022/10/08 12:22:24;;;;;;;4.85;1.30;;;15.90;99.90;;;;;;5029255;28;20135;-76
2022/10/08 12:24:55;;;;;;;7.50;1.10;;;16.00;99.90;;;;;;5009487;28;20116;-76
2022/10/08 12:27:32;;;;;;;4.97;1.20;;;16.10;99.90;;;;;;5025954;28;20044;-76
2022/10/08 12:30:09;;;;;;;6.95;1.25;;;16.10;99.90;;;;;;5028453;28;20595;-76
2022/10/08 12:32:40;;;;;;;5.22;1.33;;;16.00;99.90;;;;;;5027167;28;20125;-76
2022/10/08 12:35:26;;;;;;;9.80;1.50;;;15.90;99.90;;;;;;5010382;28;20068;-76
2022/10/08 12:38:16;;;;;;;6.90;1.45;;;15.80;99.90;;;;;;5010089;28;20048;-77
2022/10/08 12:40:49;;;;;;;8.85;1.63;;;15.60;99.90;;;;;;5008733;28;20046;-77
2022/10/08 12:43:53;;;;;;;7.10;1.30;;;15.40;99.90;;;;;;5027014;28;20098;-77
2022/10/08 12:46:51;;;;;;;7.38;1.35;;;15.20;99.90;;;;;;4965689;28;20089;-76
2022/10/08 12:49:26;;;;;;;23.77;2.25;;;15.10;99.90;;;;;;5027336;28;20065;-77
2022/10/08 12:52:10;;;;;;;5.65;1.25;;;15.00;99.90;;;;;;5010441;28;20064;-76
2022/10/08 12:54:39;;;;;;;9.90;1.50;;;14.90;99.90;;;;;;5029195;28;20045;-76
2022/10/08 12:57:11;;;;;;;8.20;1.52;;;14.80;99.90;;;;;;5027808;28;20381;-76
2022/10/08 12:59:39;;;;;;;5.88;1.38;;;14.80;99.90;;;;;;5027647;28;20045;-76
2022/10/08 13:02:32;;;;;;;6.05;1.30;;;15.00;99.90;;;;;;5008146;28;20117;-77
2022/10/08 13:04:58;;;;;;;7.45;1.30;;;15.10;99.90;;;;;;5028034;28;20643;-77
2022/10/08 13:07:27;;;;;;;9.52;1.55;;;15.30;99.90;;;;;;5006982;28;20056;-76
2022/10/08 13:10:01;;;;;;;7.68;1.80;;;15.50;99.90;;;;;;5025105;28;20045;-76